Time,TemperatureF,DewpointF,PressureIn,WindDirection,WindDirectionDegrees,WindSpeedMPH,WindSpeedGustMPH,Humidity,HourlyPrecipIn,Conditions,Clouds,dailyrainin,SoftwareType,DateUTC
2015-08-02 00:09:00,64.2,61.0,29.92,SW,220,0.0,0.0,90,0.00,,,0.00,weatherlink.com 1.10,2015-08-02 07:09:00,
2015-08-02 00:24:00,64.3,61.0,29.92,SW,220,0.0,0.0,90,0.00,,,0.00,weatherlink.com 1.10,2015-08-02 07:24:00,
2015-08-02 00:39:00,64.4,61.0,29.92,SW,220,0.0,0.0,89,0.00,,,0.00,weatherlink.com 1.10,2015-08-02 07:39:00,
2015-08-02 00:54:00,64.0,61.0,29.92,SW,220,0.0,0.0,89,0.00,,,0.00,weatherlink.com 1.10,2015-08-02 07:54:00,
2015-08-02 01:09:00,64.1,61.0,29.92,SW,220,0.0,0.0,90,0.00,,,0.00,weatherlink.com 1.10,2015-08-02 08:09:00,
2015-08-02 01:24:00,64.6,61.0,29.92,SW,219,2.0,3.0,89,0.00,,,0.00,weatherlink.com 1.10,2015-08-02 08:24:00,
2015-08-02 01:39:00,64.2,61.0,29.91,SW,224,0.0,1.0,89,0.00,,,0.00,weatherlink.com 1.10,2015-08-02 08:39:00,
2015-08-02 01:54:00,63.7,61.0,29.91,SW,224,0.0,0.0,90,0.00,,,0.00,weatherlink.com 1.10,2015-08-02 08:54:00,
2015-08-02 02:09:00,63.1,61.0,29.91,SW,224,0.0,0.0,91,0.00,,,0.00,weatherlink.com 1.10,2015-08-02 09:09:00,
2015-08-02 02:24:00,63.1,61.0,29.91,SW,224,0.0,1.0,92,0.00,,,0.00,weatherlink.com 1.10,2015-08-02 09:24:00,
2015-08-02 02:39:00,63.2,61.0,29.91,SW,224,0.0,1.0,92,0.00,,,0.00,weatherlink.com 1.10,2015-08-02 09:39:00,
2015-08-02 02:54:00,63.0,61.0,29.91,SW,224,0.0,1.0,92,0.00,,,0.00,weatherlink.com 1.10,2015-08-02 09:54:00,
2015-08-02 03:09:00,62.8,61.0,29.91,SW,224,0.0,0.0,92,0.00,,,0.00,weatherlink.com 1.10,2015-08-02 10:09:00,
2015-08-02 03:24:00,62.8,61.0,29.91,SW,224,0.0,1.0,93,0.00,,,0.00,weatherlink.com 1.10,2015-08-02 10:24:00,
2015-08-02 03:39:00,62.8,61.0,29.91,SW,224,0.0,1.0,92,0.00,,,0.00,weatherlink.com 1.10,2015-08-02 10:39:00,
2015-08-02 03:54:00,62.7,61.0,29.90,SW,224,0.0,1.0,93,0.00,,,0.00,weatherlink.com 1.10,2015-08-02 10:54:00,
2015-08-02 04:09:00,62.7,61.0,29.90,SW,224,0.0,0.0,93,0.00,,,0.00,weatherlink.com 1.10,2015-08-02 11:09:00,
2015-08-02 04:24:00,62.6,61.0,29.90,SW,224,0.0,0.0,93,0.00,,,0.00,weatherlink.com 1.10,2015-08-02 11:24:00,
2015-08-02 04:39:00,62.6,61.0,29.90,SW,224,0.0,0.0,93,0.00,,,0.00,weatherlink.com 1.10,2015-08-02 11:39:00,
2015-08-02 04:54:00,62.6,61.0,29.90,SW,220,0.0,2.0,93,0.00,,,0.00,weatherlink.com 1.10,2015-08-02 11:54:00,
2015-08-02 05:09:00,62.8,61.0,29.90,SW,220,0.0,1.0,93,0.00,,,0.00,weatherlink.com 1.10,2015-08-02 12:09:00,
2015-08-02 05:24:00,62.6,61.0,29.90,SW,220,1.0,1.0,94,0.00,,,0.00,weatherlink.com 1.10,2015-08-02 12:24:00,
2015-08-02 05:39:00,62.4,61.0,29.90,SW,220,0.0,0.0,94,0.00,,,0.00,weatherlink.com 1.10,2015-08-02 12:39:00,
2015-08-02 05:54:00,62.4,61.0,29.90,SW,220,0.0,2.0,94,0.00,,,0.00,weatherlink.com 1.10,2015-08-02 12:54:00,
2015-08-02 06:09:00,62.4,61.0,29.90,SW,220,0.0,0.0,94,0.00,,,0.00,weatherlink.com 1.10,2015-08-02 13:09:00,
2015-08-02 06:24:00,62.8,61.0,29.91,SW,219,0.0,1.0,95,0.00,,,0.00,weatherlink.com 1.10,2015-08-02 13:24:00,
2015-08-02 06:39:00,63.2,62.0,29.91,SW,219,0.0,1.0,95,0.00,,,0.00,weatherlink.com 1.10,2015-08-02 13:39:00,
2015-08-02 06:54:00,63.0,61.0,29.92,SW,219,0.0,0.0,94,0.00,,,0.00,weatherlink.com 1.10,2015-08-02 13:54:00,
2015-08-02 07:09:00,63.2,62.0,29.92,SW,219,0.0,0.0,94,0.00,,,0.00,weatherlink.com 1.10,2015-08-02 14:09:00,
2015-08-02 07:24:00,63.6,62.0,29.92,SW,219,0.0,0.0,94,0.00,,,0.00,weatherlink.com 1.10,2015-08-02 14:24:00,
2015-08-02 07:39:00,64.1,62.0,29.93,SW,220,0.0,1.0,94,0.00,,,0.00,weatherlink.com 1.10,2015-08-02 14:39:00,
2015-08-02 07:54:00,65.2,64.0,29.93,SW,229,0.0,0.0,94,0.00,,,0.00,weatherlink.com 1.10,2015-08-02 14:54:00,
2015-08-02 08:09:00,67.7,65.0,29.94,SSW,208,2.0,2.0,91,0.00,,,0.00,weatherlink.com 1.10,2015-08-02 15:09:00,
2015-08-02 08:24:00,67.9,64.0,29.94,SW,223,1.0,3.0,86,0.00,,,0.00,weatherlink.com 1.10,2015-08-02 15:24:00,
2015-08-02 08:54:00,69.6,64.0,29.94,West,266,0.0,3.0,83,0.00,,,0.00,weatherlink.com 1.10,2015-08-02 15:54:00,
2015-08-02 09:09:00,71.0,65.0,29.93,WSW,249,1.0,4.0,80,0.00,,,0.00,weatherlink.com 1.10,2015-08-02 16:09:00,
2015-08-02 09:25:00,71.9,65.0,29.93,SSE,147,1.0,3.0,78,0.00,,,0.00,weatherlink.com 1.10,2015-08-02 16:25:00,
2015-08-02 09:40:00,73.1,65.0,29.93,SSW,196,2.0,5.0,75,0.00,,,0.00,weatherlink.com 1.10,2015-08-02 16:40:00,
2015-08-02 09:55:00,73.9,65.0,29.93,SSW,200,2.0,9.0,73,0.00,,,0.00,weatherlink.com 1.10,2015-08-02 16:55:00,
2015-08-02 10:10:00,75.8,65.0,29.93,SSW,194,2.0,5.0,69,0.00,,,0.00,weatherlink.com 1.10,2015-08-02 17:10:00,
2015-08-02 10:25:00,75.9,65.0,29.93,SW,224,3.0,11.0,69,0.00,,,0.00,weatherlink.com 1.10,2015-08-02 17:25:00,
2015-08-02 10:40:00,76.0,65.0,29.93,West,268,7.0,10.0,68,0.00,,,0.00,weatherlink.com 1.10,2015-08-02 17:40:00,
2015-08-02 10:55:00,76.1,65.0,29.93,SSE,147,5.0,9.0,68,0.00,,,0.00,weatherlink.com 1.10,2015-08-02 17:55:00,
2015-08-02 11:10:00,76.8,65.0,29.92,SSW,213,3.0,10.0,68,0.00,,,0.00,weatherlink.com 1.10,2015-08-02 18:10:00,
2015-08-02 11:25:00,78.5,66.0,29.92,WSW,247,1.0,8.0,65,0.00,,,0.00,weatherlink.com 1.10,2015-08-02 18:25:00,
2015-08-02 11:40:00,80.0,66.0,29.92,West,263,5.0,8.0,62,0.00,,,0.00,weatherlink.com 1.10,2015-08-02 18:40:00,
2015-08-02 11:55:00,80.4,66.0,29.91,West,274,1.0,7.0,62,0.00,,,0.00,weatherlink.com 1.10,2015-08-02 18:55:00,
2015-08-02 12:10:00,80.1,66.0,29.91,WSW,258,8.0,15.0,62,0.00,,,0.00,weatherlink.com 1.10,2015-08-02 19:10:00,
2015-08-02 12:25:00,80.4,66.0,29.91,West,262,8.0,12.0,62,0.00,,,0.00,weatherlink.com 1.10,2015-08-02 19:25:00,
2015-08-02 12:40:00,81.9,67.0,29.91,SSW,197,8.0,11.0,60,0.00,,,0.00,weatherlink.com 1.10,2015-08-02 19:40:00,
2015-08-02 12:55:00,81.2,66.0,29.90,West,278,8.0,14.0,61,0.00,,,0.00,weatherlink.com 1.10,2015-08-02 19:55:00,
2015-08-02 13:10:00,80.9,66.0,29.90,SE,145,8.0,14.0,61,0.00,,,0.00,weatherlink.com 1.10,2015-08-02 20:10:00,
2015-08-02 13:25:00,82.0,67.0,29.89,SSE,165,12.0,16.0,60,0.00,,,0.00,weatherlink.com 1.10,2015-08-02 20:25:00,
2015-08-02 13:40:00,82.4,66.0,29.89,SSW,193,5.0,13.0,58,0.00,,,0.00,weatherlink.com 1.10,2015-08-02 20:40:00,
2015-08-02 13:55:00,82.1,66.0,29.89,WSW,247,9.0,15.0,59,0.00,,,0.00,weatherlink.com 1.10,2015-08-02 20:55:00,
2015-08-02 14:10:00,81.2,66.0,29.88,SW,219,5.0,15.0,60,0.00,,,0.00,weatherlink.com 1.10,2015-08-02 21:10:00,
2015-08-02 14:25:00,81.6,65.0,29.88,SE,145,5.0,14.0,58,0.00,,,0.00,weatherlink.com 1.10,2015-08-02 21:25:00,
2015-08-02 14:40:00,81.8,65.0,29.87,WSW,238,3.0,14.0,58,0.00,,,0.00,weatherlink.com 1.10,2015-08-02 21:40:00,
2015-08-02 14:55:00,82.1,65.0,29.87,WSW,241,4.0,17.0,57,0.00,,,0.00,weatherlink.com 1.10,2015-08-02 21:55:00,